Time;durP1;ratioP1;P1;durP2;ratioP2;P2;SDS_P1;SDS_P2;PMS_P1;PMS_P2;Temp;Humidity;BMP_temperature;BMP_pressure;BME280_temperature;BME280_humidity;BME280_pressure;Samples;Min_cycle;Max_cycle;Signal;HPM_P1;HPM_P2
2022/11/26 00:00:27;;;;;;;35.03;11.88;;;9.80;99.90;;;;;;5013223;28;20104;-73
2022/11/26 00:02:53;;;;;;;36.65;10.93;;;9.70;99.90;;;;;;5012142;28;20062;-71
2022/11/26 00:05:20;;;;;;;37.17;11.20;;;9.80;99.90;;;;;;5012611;28;20092;-72
2022/11/26 00:07:54;;;;;;;30.35;10.35;;;9.90;99.90;;;;;;5012279;28;20040;-72
2022/11/26 00:10:23;;;;;;;31.17;11.18;;;9.80;99.90;;;;;;5012110;28;20038;-73
2022/11/26 00:12:49;;;;;;;46.38;11.95;;;9.80;99.90;;;;;;5012904;28;20349;-73
2022/11/26 00:15:24;;;;;;;32.85;12.18;;;9.70;99.90;;;;;;5012793;28;20353;-71
2022/11/26 00:17:51;;;;;;;33.00;13.30;;;9.80;99.90;;;;;;5012397;28;20030;-72
2022/11/26 00:20:19;;;;;;;37.37;11.00;;;9.90;99.90;;;;;;5011176;28;20121;-72
2022/11/26 00:22:49;;;;;;;33.20;10.73;;;9.70;99.90;;;;;;5012341;28;20037;-72
2022/11/26 00:25:20;;;;;;;31.25;10.90;;;9.70;99.90;;;;;;5012102;28;20030;-73
2022/11/26 00:27:47;;;;;;;29.95;12.10;;;9.80;99.90;;;;;;5012636;28;20118;-71
2022/11/26 00:30:22;;;;;;;36.88;12.05;;;9.80;99.90;;;;;;5012137;28;20411;-72
2022/11/26 00:32:48;;;;;;;30.40;10.25;;;9.80;99.90;;;;;;5012006;28;20531;-72
2022/11/26 00:35:14;;;;;;;29.70;11.00;;;9.80;99.90;;;;;;5012030;28;20038;-73
2022/11/26 00:37:54;;;;;;;35.83;11.13;;;9.70;99.90;;;;;;5010900;28;20030;-73
2022/11/26 00:40:29;;;;;;;36.25;10.80;;;9.70;99.90;;;;;;5012156;28;20518;-72
2022/11/26 00:42:55;;;;;;;29.15;10.40;;;9.60;99.90;;;;;;5011346;28;20453;-73
2022/11/26 00:45:24;;;;;;;31.73;11.35;;;9.70;99.90;;;;;;5012315;28;20121;-73
2022/11/26 00:47:51;;;;;;;31.88;10.88;;;9.70;99.90;;;;;;5012056;28;20041;-72
2022/11/26 00:50:20;;;;;;;33.40;10.15;;;9.70;99.90;;;;;;5011952;28;20034;-73
2022/11/26 00:52:48;;;;;;;25.67;9.60;;;9.60;99.90;;;;;;5011801;28;20437;-72
2022/11/26 00:55:35;;;;;;;40.25;11.15;;;9.70;99.90;;;;;;5011800;28;20265;-74
2022/11/26 00:58:02;;;;;;;37.73;10.97;;;9.60;99.90;;;;;;5012265;28;20408;-73
2022/11/26 01:00:31;;;;;;;28.50;10.60;;;9.70;99.90;;;;;;5010778;28;20579;-73
2022/11/26 01:02:57;;;;;;;31.08;9.68;;;9.60;99.90;;;;;;5011798;28;20536;-73
2022/11/26 01:05:25;;;;;;;29.70;9.75;;;9.60;99.90;;;;;;5011680;28;20127;-73
2022/11/26 01:07:52;;;;;;;30.65;9.18;;;9.60;99.90;;;;;;5011884;28;20109;-73
2022/11/26 01:10:17;;;;;;;35.67;9.63;;;9.70;99.90;;;;;;5011044;28;20490;-74
2022/11/26 01:12:44;;;;;;;27.83;8.73;;;9.60;99.90;;;;;;5010971;28;20025;-73
2022/11/26 01:15:10;;;;;;;105.30;46.65;;;9.60;99.90;;;;;;5010139;28;20345;-74
2022/11/26 01:17:36;;;;;;;61.75;26.73;;;9.60;99.90;;;;;;5010292;28;20037;-72
2022/11/26 01:20:02;;;;;;;29.35;11.57;;;9.60;99.90;;;;;;5009593;28;20150;-71
2022/11/26 01:22:28;;;;;;;25.55;8.55;;;9.60;99.90;;;;;;5011049;28;20105;-72
2022/11/26 01:24:53;;;;;;;29.08;9.25;;;9.60;99.90;;;;;;5011486;28;20205;-72
2022/11/26 01:27:19;;;;;;;29.23;8.57;;;9.60;99.90;;;;;;5011269;28;20030;-73
2022/11/26 01:29:46;;;;;;;30.10;8.05;;;9.60;99.90;;;;;;5011179;28;20507;-73
2022/11/26 01:32:11;;;;;;;33.95;8.82;;;9.50;99.90;;;;;;5009647;28;20388;-73
2022/11/26 01:34:37;;;;;;;25.77;8.18;;;9.50;99.90;;;;;;5009779;28;20037;-72
2022/11/26 01:37:11;;;;;;;27.65;8.13;;;9.50;99.90;;;;;;5010208;28;20053;-72
2022/11/26 01:39:36;;;;;;;26.58;8.15;;;9.50;99.90;;;;;;5010969;28;20127;-73
2022/11/26 01:42:33;;;;;;;31.55;9.30;;;9.50;99.90;;;;;;5009557;28;20147;-72
2022/11/26 01:44:59;;;;;;;28.20;7.88;;;9.50;99.90;;;;;;5010861;28;20046;-74
2022/11/26 01:47:28;;;;;;;26.35;8.73;;;9.50;99.90;;;;;;5010907;28;20117;-71
2022/11/26 01:50:29;;;;;;;30.10;8.98;;;9.50;99.90;;;;;;5009550;28;20052;-72
2022/11/26 01:53:01;;;;;;;21.27;7.82;;;9.50;99.90;;;;;;5010443;28;20037;-73
2022/11/26 01:55:45;;;;;;;33.83;8.68;;;9.40;99.90;;;;;;5010570;28;20030;-72
2022/11/26 01:58:15;;;;;;;31.52;8.77;;;9.40;99.90;;;;;;5010701;28;20100;-73
2022/11/26 02:00:41;;;;;;;38.85;11.27;;;9.50;99.90;;;;;;5011102;28;20029;-73
2022/11/26 02:03:08;;;;;;;20.90;8.48;;;9.40;99.90;;;;;;5010704;28;20040;-73
2022/11/26 02:05:45;;;;;;;29.77;10.48;;;9.40;99.90;;;;;;5011176;28;20112;-73
2022/11/26 02:08:11;;;;;;;27.02;9.13;;;9.40;99.90;;;;;;5010535;28;20064;-71
2022/11/26 02:10:37;;;;;;;30.65;9.48;;;9.40;99.90;;;;;;5010544;28;20144;-72
2022/11/26 02:13:04;;;;;;;28.02;8.15;;;9.30;99.90;;;;;;5011429;28;20444;-73
2022/11/26 02:15:40;;;;;;;27.45;8.73;;;9.40;99.90;;;;;;5010946;28;20049;-75
2022/11/26 02:18:08;;;;;;;28.30;8.30;;;9.30;99.90;;;;;;5010707;28;20026;-73
2022/11/26 02:20:34;;;;;;;26.10;8.80;;;9.30;99.90;;;;;;5009466;28;20030;-73
2022/11/26 02:23:11;;;;;;;27.00;9.88;;;9.40;99.90;;;;;;5010866;28;20480;-72
2022/11/26 02:26:25;;;;;;;26.33;9.18;;;9.30;99.90;;;;;;5011031;28;20029;-73
2022/11/26 02:28:58;;;;;;;29.70;9.30;;;9.30;99.90;;;;;;5010489;28;20026;-72
2022/11/26 02:31:48;;;;;;;38.67;10.70;;;9.30;99.90;;;;;;5010295;28;20452;-72
2022/11/26 02:34:28;;;;;;;32.63;9.90;;;9.30;99.90;;;;;;5013253;28;20036;-73
2022/11/26 02:37:06;;;;;;;26.27;9.38;;;9.30;99.90;;;;;;5014973;28;20026;-73
2022/11/26 02:39:32;;;;;;;31.90;9.93;;;9.30;99.90;;;;;;5032776;28;20112;-73
2022/11/26 02:42:01;;;;;;;28.48;9.40;;;9.30;99.90;;;;;;5032650;28;20109;-72
2022/11/26 02:44:45;;;;;;;34.67;10.27;;;9.30;99.90;;;;;;5034134;28;20037;-72
2022/11/26 02:47:14;;;;;;;24.65;9.30;;;9.30;99.90;;;;;;5034063;28;20468;-73
2022/11/26 02:49:42;;;;;;;33.60;9.85;;;9.30;99.90;;;;;;5033923;28;20021;-74
2022/11/26 02:52:10;;;;;;;35.57;10.77;;;9.30;99.90;;;;;;5033142;28;20431;-72
2022/11/26 02:54:37;;;;;;;25.05;9.32;;;9.30;99.90;;;;;;5033924;28;20051;-74
2022/11/26 02:57:06;;;;;;;29.35;9.43;;;9.20;99.90;;;;;;5033707;28;20033;-73
2022/11/26 02:59:33;;;;;;;29.00;9.27;;;9.20;99.90;;;;;;5033603;28;20030;-73
2022/11/26 03:02:23;;;;;;;28.13;10.10;;;9.20;99.90;;;;;;5032890;28;20035;-74
2022/11/26 03:04:54;;;;;;;34.97;9.18;;;9.10;99.90;;;;;;5030451;28;20479;-73
2022/11/26 03:07:21;;;;;;;31.60;9.93;;;9.20;99.90;;;;;;5033689;28;20452;-73
2022/11/26 03:09:57;;;;;;;34.15;10.40;;;9.10;99.90;;;;;;5032586;28;20183;-73
2022/11/26 03:12:23;;;;;;;34.85;10.48;;;9.10;99.90;;;;;;5033394;28;20041;-74
2022/11/26 03:14:49;;;;;;;31.70;9.18;;;9.10;99.90;;;;;;5033461;28;20068;-73
2022/11/26 03:17:15;;;;;;;31.05;9.50;;;9.10;99.90;;;;;;5033339;28;20096;-74
2022/11/26 03:19:41;;;;;;;29.25;9.70;;;9.10;99.90;;;;;;5033214;28;20061;-72
2022/11/26 03:22:06;;;;;;;30.40;9.02;;;9.10;99.90;;;;;;5033790;28;20456;-73
2022/11/26 03:24:32;;;;;;;29.73;9.50;;;9.10;99.90;;;;;;5033276;28;20048;-73
2022/11/26 03:26:58;;;;;;;29.48;9.55;;;9.10;99.90;;;;;;5032273;28;20055;-73
2022/11/26 03:29:24;;;;;;;26.15;9.23;;;9.10;99.90;;;;;;5033251;28;20084;-73
2022/11/26 03:31:50;;;;;;;30.55;8.95;;;9.00;99.90;;;;;;5033040;28;20132;-73
2022/11/26 03:34:16;;;;;;;31.05;8.85;;;9.00;99.90;;;;;;5033188;28;20022;-72
2022/11/26 03:36:41;;;;;;;30.25;8.45;;;9.00;99.90;;;;;;5032542;28;20021;-73
2022/11/26 03:39:07;;;;;;;22.52;8.20;;;9.00;99.90;;;;;;5031991;28;20029;-73
2022/11/26 03:41:33;;;;;;;30.25;8.68;;;9.00;99.90;;;;;;5031836;28;20502;-75
2022/11/26 03:43:58;;;;;;;27.05;9.80;;;9.00;99.90;;;;;;5032692;28;20037;-73
2022/11/26 03:46:24;;;;;;;19.33;7.55;;;9.00;99.90;;;;;;5032618;28;20037;-73
2022/11/26 03:48:49;;;;;;;31.75;8.18;;;9.00;99.90;;;;;;5033339;28;20022;-73
2022/11/26 03:51:15;;;;;;;20.20;7.53;;;8.90;99.90;;;;;;5032849;28;20347;-73
2022/11/26 03:53:41;;;;;;;26.15;7.85;;;8.90;99.90;;;;;;5032798;28;20387;-73
2022/11/26 03:56:07;;;;;;;24.23;7.20;;;8.90;99.90;;;;;;5032665;28;20026;-73
2022/11/26 03:58:33;;;;;;;25.98;6.97;;;8.90;99.90;;;;;;5032623;28;20398;-72
2022/11/26 04:00:59;;;;;;;22.95;7.80;;;8.90;99.90;;;;;;5033322;28;20039;-73
2022/11/26 04:03:24;;;;;;;30.63;7.88;;;8.90;99.90;;;;;;5032570;28;20201;-73
2022/11/26 04:05:50;;;;;;;21.80;7.05;;;8.80;99.90;;;;;;5032856;28;20074;-73
2022/11/26 04:08:17;;;;;;;23.40;8.13;;;8.90;99.90;;;;;;5032551;28;20041;-72
2022/11/26 04:10:42;;;;;;;29.50;7.38;;;8.80;99.90;;;;;;5032342;28;20091;-74
2022/11/26 04:13:08;;;;;;;32.55;9.10;;;8.80;99.90;;;;;;5031760;28;20367;-72
2022/11/26 04:15:34;;;;;;;30.05;7.82;;;8.80;99.90;;;;;;5031180;28;20041;-72
2022/11/26 04:18:00;;;;;;;25.30;7.18;;;8.80;99.90;;;;;;5032305;28;20030;-73
2022/11/26 04:20:25;;;;;;;31.25;8.80;;;8.70;99.90;;;;;;5032183;28;20045;-72
2022/11/26 04:22:51;;;;;;;31.45;8.00;;;8.70;99.90;;;;;;5032302;28;20087;-72
2022/11/26 04:25:17;;;;;;;26.55;8.85;;;8.60;99.90;;;;;;5031059;28;20083;-73
2022/11/26 04:27:42;;;;;;;24.00;7.80;;;8.50;99.90;;;;;;5032964;28;20135;-73
2022/11/26 04:30:09;;;;;;;23.25;7.35;;;8.50;99.90;;;;;;5031989;28;20471;-73
2022/11/26 04:32:38;;;;;;;18.98;6.90;;;8.50;99.90;;;;;;5032114;28;20033;-72
2022/11/26 04:35:06;;;;;;;20.52;7.40;;;8.20;99.90;;;;;;5031880;28;20329;-73
2022/11/26 04:37:31;;;;;;;19.20;7.20;;;8.20;99.90;;;;;;5031870;28;20025;-73
2022/11/26 04:39:57;;;;;;;19.52;6.43;;;8.10;99.90;;;;;;5031253;28;20511;-74
2022/11/26 04:42:22;;;;;;;15.15;5.97;;;8.10;99.90;;;;;;5031860;28;20407;-72
2022/11/26 04:44:48;;;;;;;25.95;8.30;;;8.00;99.90;;;;;;5030693;28;20026;-74
2022/11/26 04:47:14;;;;;;;22.15;7.50;;;7.90;99.90;;;;;;5030656;28;20029;-73
2022/11/26 04:49:39;;;;;;;23.48;7.45;;;7.90;99.90;;;;;;5030896;28;20176;-73
2022/11/26 04:52:05;;;;;;;14.70;6.03;;;7.90;99.90;;;;;;5031849;28;20021;-73
2022/11/26 04:54:31;;;;;;;21.70;6.55;;;7.80;99.90;;;;;;5030849;28;20038;-74
2022/11/26 04:56:56;;;;;;;24.20;7.70;;;7.80;99.90;;;;;;5031710;28;20039;-74
2022/11/26 04:59:22;;;;;;;20.77;7.18;;;7.80;99.90;;;;;;5031506;28;20328;-73
2022/11/26 05:01:48;;;;;;;20.63;6.82;;;7.80;99.90;;;;;;5031785;28;20025;-73
2022/11/26 05:04:13;;;;;;;17.92;6.35;;;7.80;99.90;;;;;;5031589;28;20017;-73
2022/11/26 05:06:39;;;;;;;29.27;7.25;;;7.70;99.90;;;;;;5030815;28;20347;-72
2022/11/26 05:09:05;;;;;;;18.98;6.70;;;7.70;99.90;;;;;;5031489;28;20029;-72
2022/11/26 05:11:30;;;;;;;19.85;6.50;;;7.80;99.90;;;;;;5030167;28;20059;-74
2022/11/26 05:13:56;;;;;;;14.60;6.68;;;7.70;99.90;;;;;;5031172;28;20029;-74
2022/11/26 05:16:21;;;;;;;15.38;6.40;;;7.70;99.90;;;;;;5031276;28;20033;-73
2022/11/26 05:18:47;;;;;;;18.63;6.43;;;7.60;99.90;;;;;;5030769;28;20025;-73
2022/11/26 05:21:13;;;;;;;24.40;8.02;;;7.60;99.90;;;;;;5030094;28;20506;-73
2022/11/26 05:23:39;;;;;;;25.23;6.35;;;7.50;99.90;;;;;;5031305;28;20041;-74
2022/11/26 05:26:05;;;;;;;18.73;6.93;;;7.50;99.90;;;;;;5031016;28;20030;-73
2022/11/26 05:28:30;;;;;;;16.02;5.80;;;7.50;99.90;;;;;;5030271;28;20095;-73
2022/11/26 05:31:00;;;;;;;19.65;6.63;;;7.50;99.90;;;;;;5031382;28;20040;-73
2022/11/26 05:33:27;;;;;;;17.00;6.43;;;7.50;99.90;;;;;;5031187;28;20026;-71
2022/11/26 05:35:53;;;;;;;22.08;6.35;;;7.40;99.90;;;;;;5030952;28;20038;-72
2022/11/26 05:38:19;;;;;;;18.83;6.50;;;7.40;99.90;;;;;;5031059;28;20033;-72
2022/11/26 05:40:44;;;;;;;16.10;7.55;;;7.30;99.90;;;;;;5030903;28;20025;-72
2022/11/26 05:43:10;;;;;;;22.75;5.20;;;7.30;99.90;;;;;;5030786;28;20432;-73
2022/11/26 05:45:36;;;;;;;16.08;5.47;;;7.40;99.90;;;;;;5031516;28;20483;-72
2022/11/26 05:48:02;;;;;;;22.17;6.30;;;7.30;99.90;;;;;;5030725;28;20506;-71
2022/11/26 05:50:27;;;;;;;20.75;5.25;;;7.20;99.90;;;;;;5030617;28;20092;-73
2022/11/26 05:52:53;;;;;;;20.58;6.75;;;7.20;99.90;;;;;;5030606;28;20363;-72
2022/11/26 05:55:19;;;;;;;22.75;5.63;;;7.30;99.90;;;;;;5030440;28;20030;-72
2022/11/26 05:57:44;;;;;;;17.38;6.18;;;7.20;99.90;;;;;;5030909;28;20017;-72
2022/11/26 06:00:11;;;;;;;18.48;5.90;;;7.10;99.90;;;;;;5030870;28;20442;-72
2022/11/26 06:02:37;;;;;;;13.25;6.40;;;7.10;99.90;;;;;;5030339;28;20048;-72
2022/11/26 06:05:03;;;;;;;19.05;5.93;;;7.10;99.90;;;;;;5030452;28;20168;-71
2022/11/26 06:07:28;;;;;;;24.40;6.82;;;7.10;99.90;;;;;;5029049;28;20108;-72
2022/11/26 06:09:54;;;;;;;18.40;7.20;;;7.10;99.90;;;;;;5030410;28;20220;-73
2022/11/26 06:12:20;;;;;;;24.10;7.70;;;7.00;99.90;;;;;;5030365;28;20593;-72
2022/11/26 06:14:45;;;;;;;22.00;7.05;;;7.00;99.90;;;;;;5030533;28;20040;-72
2022/11/26 06:17:11;;;;;;;27.50;8.88;;;7.10;99.90;;;;;;5030586;28;20395;-72
2022/11/26 06:19:37;;;;;;;23.08;7.20;;;7.00;99.90;;;;;;5030532;28;20123;-72
2022/11/26 06:22:03;;;;;;;19.30;6.68;;;6.90;99.90;;;;;;5031551;28;20026;-72
2022/11/26 06:24:28;;;;;;;19.13;6.97;;;6.90;99.90;;;;;;5029485;28;20026;-70
2022/11/26 06:26:54;;;;;;;21.48;6.80;;;6.90;99.90;;;;;;5030120;28;20049;-73
2022/11/26 06:29:20;;;;;;;17.90;6.85;;;6.90;99.90;;;;;;5030233;28;20033;-71
2022/11/26 06:31:46;;;;;;;20.33;7.15;;;6.90;99.90;;;;;;5029016;28;20040;-71
2022/11/26 06:34:13;;;;;;;20.13;8.73;;;6.90;99.90;;;;;;5030353;28;20030;-72
2022/11/26 06:36:39;;;;;;;20.10;7.60;;;6.90;99.90;;;;;;5030775;28;20032;-73
2022/11/26 06:39:04;;;;;;;23.48;7.60;;;6.90;99.90;;;;;;5030511;28;20034;-73
2022/11/26 06:41:30;;;;;;;19.58;7.10;;;6.80;99.90;;;;;;5029358;28;20509;-73
2022/11/26 06:43:57;;;;;;;17.15;7.20;;;6.80;99.90;;;;;;5029215;28;20120;-72
2022/11/26 06:46:23;;;;;;;19.90;7.43;;;6.70;99.90;;;;;;5029014;28;20534;-72
2022/11/26 06:48:48;;;;;;;21.35;7.57;;;6.70;99.90;;;;;;5030499;28;20350;-72
2022/11/26 06:51:15;;;;;;;23.92;7.68;;;6.70;99.90;;;;;;5030104;28;20042;-72
2022/11/26 06:53:41;;;;;;;18.33;7.00;;;6.60;99.90;;;;;;5029074;28;20105;-72
2022/11/26 06:56:11;;;;;;;23.02;8.85;;;6.60;99.90;;;;;;5029058;28;20132;-72
2022/11/26 06:58:37;;;;;;;16.45;7.30;;;6.70;99.90;;;;;;5030102;28;20080;-73
2022/11/26 07:01:20;;;;;;;25.23;7.90;;;6.70;99.90;;;;;;5030303;28;20026;-72
2022/11/26 07:03:46;;;;;;;21.83;8.02;;;6.80;99.90;;;;;;5030246;28;20037;-74
2022/11/26 07:06:20;;;;;;;16.45;7.85;;;6.80;99.90;;;;;;5028815;28;20042;-72
2022/11/26 07:08:47;;;;;;;22.83;7.82;;;6.70;99.90;;;;;;5029950;28;20033;-72
2022/11/26 07:11:13;;;;;;;26.42;8.85;;;6.70;99.90;;;;;;5029677;28;20056;-73
2022/11/26 07:13:38;;;;;;;22.65;7.50;;;6.70;99.90;;;;;;5029951;28;20212;-74
2022/11/26 07:16:05;;;;;;;17.15;7.10;;;6.80;99.90;;;;;;5029378;28;20049;-73
2022/11/26 07:18:31;;;;;;;24.02;8.55;;;6.80;99.90;;;;;;5031240;28;20029;-73
2022/11/26 07:21:02;;;;;;;15.05;7.07;;;6.70;99.90;;;;;;5032392;28;20025;-74
2022/11/26 07:23:28;;;;;;;17.13;7.00;;;6.70;99.90;;;;;;5032313;28;20026;-72
2022/11/26 07:25:53;;;;;;;20.40;7.93;;;6.70;99.90;;;;;;5033409;28;20120;-73
2022/11/26 07:28:19;;;;;;;18.15;6.95;;;6.70;99.90;;;;;;5033261;28;20448;-73
2022/11/26 07:30:44;;;;;;;16.35;6.80;;;6.70;99.90;;;;;;5033768;28;20033;-72
2022/11/26 07:33:10;;;;;;;17.65;6.88;;;6.80;99.90;;;;;;5033387;28;20034;-72
2022/11/26 07:35:36;;;;;;;20.33;6.57;;;6.60;99.90;;;;;;5031962;28;20021;-73
2022/11/26 07:38:02;;;;;;;21.90;7.75;;;6.70;99.90;;;;;;5033225;28;20111;-71
2022/11/26 07:40:28;;;;;;;14.98;7.30;;;6.60;99.90;;;;;;5031901;28;20443;-73
2022/11/26 07:42:53;;;;;;;14.85;6.57;;;6.60;99.90;;;;;;5032170;28;20517;-72
2022/11/26 07:45:19;;;;;;;17.48;7.03;;;6.60;99.90;;;;;;5031934;28;20120;-72
2022/11/26 07:47:45;;;;;;;15.30;7.13;;;6.80;99.90;;;;;;5031742;28;20172;-72
2022/11/26 07:50:10;;;;;;;15.73;6.78;;;6.60;99.90;;;;;;5032678;28;20036;-73
2022/11/26 07:52:36;;;;;;;20.83;7.13;;;6.70;99.90;;;;;;5031776;28;20044;-73
2022/11/26 07:55:02;;;;;;;13.88;7.22;;;6.70;99.90;;;;;;5033669;28;20036;-74
2022/11/26 07:57:27;;;;;;;23.02;6.80;;;6.70;99.90;;;;;;5032905;28;20026;-75
2022/11/26 07:59:53;;;;;;;19.45;7.43;;;6.80;99.90;;;;;;5032642;28;20042;-75
2022/11/26 08:02:19;;;;;;;18.85;7.57;;;6.80;99.90;;;;;;5032754;28;20116;-72
2022/11/26 08:04:44;;;;;;;17.75;7.13;;;7.10;99.90;;;;;;5032712;28;20029;-73
2022/11/26 08:07:10;;;;;;;14.20;6.57;;;6.90;99.90;;;;;;5031856;28;20439;-75
2022/11/26 08:09:36;;;;;;;21.65;7.85;;;6.90;99.90;;;;;;5032118;28;20359;-75
2022/11/26 08:12:02;;;;;;;20.58;6.70;;;7.00;99.90;;;;;;5031293;28;20096;-76
2022/11/26 08:14:28;;;;;;;15.77;6.82;;;7.10;99.90;;;;;;5031659;28;20055;-74
2022/11/26 08:16:53;;;;;;;14.35;7.35;;;7.10;99.90;;;;;;5032475;28;20034;-72
2022/11/26 08:19:19;;;;;;;18.70;7.60;;;7.20;99.90;;;;;;5032405;28;20109;-75
2022/11/26 08:21:45;;;;;;;16.27;6.30;;;7.20;99.90;;;;;;5031803;28;20056;-75
2022/11/26 08:24:16;;;;;;;18.40;7.18;;;7.30;99.90;;;;;;5031361;28;20033;-76
2022/11/26 08:26:42;;;;;;;21.77;7.63;;;7.40;99.90;;;;;;5031186;28;20025;-74
2022/11/26 08:29:08;;;;;;;19.15;7.43;;;7.60;99.90;;;;;;5032408;28;20044;-74
2022/11/26 08:31:34;;;;;;;13.63;6.43;;;7.70;99.90;;;;;;5032288;28;20037;-74
2022/11/26 08:34:01;;;;;;;16.00;7.28;;;7.70;99.90;;;;;;5031588;28;20033;-74
2022/11/26 08:36:28;;;;;;;18.98;7.10;;;7.70;99.90;;;;;;5032244;28;20125;-73
2022/11/26 08:38:54;;;;;;;19.13;7.63;;;7.80;99.90;;;;;;5032222;28;20091;-73
2022/11/26 08:41:21;;;;;;;19.63;7.10;;;7.90;99.90;;;;;;5032009;28;20128;-74
2022/11/26 08:43:47;;;;;;;15.57;7.38;;;8.00;99.90;;;;;;5031942;28;20084;-73
2022/11/26 08:46:12;;;;;;;17.80;6.82;;;8.00;99.90;;;;;;5031681;28;20025;-74
2022/11/26 08:48:38;;;;;;;22.02;8.35;;;8.10;99.90;;;;;;5032085;28;20017;-73
2022/11/26 08:51:08;;;;;;;19.33;7.18;;;8.20;99.90;;;;;;5031977;28;20064;-73
2022/11/26 08:53:36;;;;;;;21.80;7.65;;;8.40;99.90;;;;;;5031842;28;20506;-73
2022/11/26 08:56:04;;;;;;;22.33;7.38;;;8.40;99.90;;;;;;5031890;28;20471;-73
2022/11/26 08:58:31;;;;;;;;;;;8.30;99.90;;;;;;5027515;28;20490;-71
2022/11/26 09:00:57;;;;;;;19.30;7.28;;;8.40;99.90;;;;;;5012076;28;19905;-72
2022/11/26 09:03:22;;;;;;;15.07;6.95;;;8.40;99.90;;;;;;5011803;28;20052;-72
2022/11/26 09:05:48;;;;;;;16.17;6.50;;;8.60;99.90;;;;;;5011737;28;20030;-72
2022/11/26 09:08:14;;;;;;;17.83;7.60;;;8.50;99.90;;;;;;5011483;28;20049;-74
2022/11/26 09:10:39;;;;;;;19.33;6.85;;;8.50;99.90;;;;;;5011187;28;20472;-70
2022/11/26 09:13:05;;;;;;;21.23;7.35;;;8.60;99.90;;;;;;5011708;28;20022;-70
2022/11/26 09:15:31;;;;;;;16.85;6.82;;;8.70;99.90;;;;;;5011125;28;20022;-71
2022/11/26 09:17:57;;;;;;;17.55;7.82;;;8.80;99.90;;;;;;5011202;28;20056;-71
2022/11/26 09:20:22;;;;;;;20.77;7.50;;;8.90;99.90;;;;;;5011496;28;20117;-70
2022/11/26 09:22:48;;;;;;;15.77;7.97;;;8.80;99.90;;;;;;5011002;28;20034;-71
2022/11/26 09:25:14;;;;;;;17.88;7.28;;;8.90;99.90;;;;;;5015564;28;20018;-70
2022/11/26 09:27:39;;;;;;;16.65;7.63;;;8.90;99.90;;;;;;5030207;28;20488;-70
2022/11/26 09:30:06;;;;;;;16.77;7.95;;;9.10;99.90;;;;;;5030897;28;20051;-74
2022/11/26 09:32:33;;;;;;;17.92;7.72;;;9.10;99.90;;;;;;5031035;28;20048;-75
2022/11/26 09:34:59;;;;;;;22.30;8.50;;;9.10;99.90;;;;;;5030905;28;20356;-74
2022/11/26 09:37:24;;;;;;;23.60;8.18;;;9.20;99.90;;;;;;5031000;28;20041;-74
2022/11/26 09:39:52;;;;;;;25.98;8.75;;;9.20;99.90;;;;;;5030378;28;20036;-74
2022/11/26 09:42:55;;;;;;;25.45;8.10;;;9.30;99.90;;;;;;5030631;28;20091;-74
2022/11/26 09:45:38;;;;;;;23.80;8.55;;;9.40;99.90;;;;;;5031000;28;20021;-74
2022/11/26 09:48:04;;;;;;;22.90;8.00;;;9.50;99.90;;;;;;5031060;28;20030;-75
2022/11/26 09:50:37;;;;;;;20.85;9.25;;;9.50;99.90;;;;;;5030657;28;20455;-74
2022/11/26 09:53:18;;;;;;;30.88;9.63;;;9.60;99.90;;;;;;5030725;28;20099;-75
2022/11/26 09:55:51;;;;;;;24.83;9.52;;;9.70;99.90;;;;;;5030314;28;20032;-75
2022/11/26 09:58:30;;;;;;;24.77;10.05;;;9.80;99.90;;;;;;5030365;28;20057;-75
2022/11/26 10:00:58;;;;;;;22.13;9.35;;;9.90;99.90;;;;;;5031482;28;20025;-76
2022/11/26 10:03:29;;;;;;;;;;;10.00;99.90;;;;;;5030254;28;20051;-75
2022/11/26 10:06:09;;;;;;;23.88;9.05;;;10.10;99.90;;;;;;5030593;28;20351;-75
2022/11/26 10:08:34;;;;;;;21.48;7.97;;;10.10;99.90;;;;;;5030535;28;20046;-75
2022/11/26 10:11:22;;;;;;;26.25;9.65;;;10.30;99.90;;;;;;5029457;28;20380;-75
2022/11/26 10:13:54;;;;;;;;;;;10.30;99.90;;;;;;5030012;28;20095;-76
2022/11/26 10:16:42;;;;;;;24.00;9.35;;;10.40;99.90;;;;;;5030541;28;20360;-73
2022/11/26 10:19:21;;;;;;;26.10;9.55;;;10.60;99.90;;;;;;5030086;28;20483;-75
2022/11/26 10:21:57;;;;;;;23.83;9.88;;;10.60;99.90;;;;;;5030624;28;20048;-77
2022/11/26 10:24:37;;;;;;;23.48;10.18;;;10.70;99.90;;;;;;5030785;28;20117;-74
2022/11/26 10:27:11;;;;;;;30.70;11.90;;;10.90;99.90;;;;;;5029677;28;20543;-76
2022/11/26 10:29:45;;;;;;;24.02;8.88;;;11.00;99.90;;;;;;5030209;28;20026;-74
2022/11/26 10:32:24;;;;;;;32.20;10.25;;;11.10;99.90;;;;;;5030119;28;20038;-73
2022/11/26 10:34:52;;;;;;;28.40;9.00;;;11.20;99.90;;;;;;5030311;28;20148;-74
2022/11/26 10:37:21;;;;;;;24.17;8.30;;;11.40;99.90;;;;;;5029143;28;20035;-74
2022/11/26 10:39:48;;;;;;;29.48;8.25;;;11.50;99.90;;;;;;5030768;28;20324;-72
2022/11/26 10:42:21;;;;;;;20.05;7.82;;;11.40;99.90;;;;;;5030368;28;20033;-73
2022/11/26 10:44:51;;;;;;;25.48;8.50;;;11.50;99.90;;;;;;5029039;28;20049;-75
2022/11/26 10:47:27;;;;;;;24.52;8.38;;;11.70;99.90;;;;;;5030253;28;20112;-74
2022/11/26 10:50:22;;;;;;;26.10;8.40;;;11.90;99.90;;;;;;5029234;28;20026;-75
2022/11/26 10:52:50;;;;;;;25.25;8.27;;;12.00;99.90;;;;;;5026859;28;20048;-72
2022/11/26 10:55:25;;;;;;;24.92;8.30;;;12.00;99.90;;;;;;5033676;28;20400;-75
2022/11/26 10:58:02;;;;;;;26.40;9.68;;;12.20;99.90;;;;;;5034369;28;20024;-76
2022/11/26 11:00:31;;;;;;;23.92;8.98;;;12.40;99.90;;;;;;5032812;28;20482;-75
2022/11/26 11:02:58;;;;;;;33.35;9.25;;;12.50;99.90;;;;;;5032262;28;20125;-76
2022/11/26 11:05:24;;;;;;;28.55;9.25;;;12.60;99.90;;;;;;5033912;28;20484;-76
2022/11/26 11:07:52;;;;;;;28.17;9.85;;;13.00;99.90;;;;;;5033616;28;20064;-76
2022/11/26 11:10:22;;;;;;;26.45;7.85;;;13.30;99.90;;;;;;5032276;28;20025;-76
2022/11/26 11:12:59;;;;;;;24.52;8.65;;;13.30;99.20;;;;;;5034162;28;20040;-73
2022/11/26 11:15:27;;;;;;;28.35;9.27;;;13.40;99.20;;;;;;5033469;28;20038;-75
2022/11/26 11:18:12;;;;;;;27.77;9.07;;;14.00;99.40;;;;;;5033410;28;20466;-76
2022/11/26 11:20:41;;;;;;;36.55;11.45;;;14.80;98.90;;;;;;5033191;28;20045;-74
2022/11/26 11:23:10;;;;;;;38.63;14.20;;;14.70;97.60;;;;;;5032212;28;20045;-75
2022/11/26 11:25:43;;;;;;;48.45;21.48;;;15.20;97.10;;;;;;5032125;28;20087;-76
2022/11/26 11:28:11;;;;;;;29.73;10.88;;;15.60;97.00;;;;;;5033820;28;20495;-75
2022/11/26 11:30:39;;;;;;;24.10;9.27;;;15.60;95.50;;;;;;5033045;28;20367;-74
2022/11/26 11:33:19;;;;;;;28.07;9.13;;;15.60;95.60;;;;;;5033222;28;20029;-75
2022/11/26 11:36:05;;;;;;;26.65;8.95;;;15.80;95.70;;;;;;5033047;28;20426;-74
2022/11/26 11:38:51;;;;;;;24.63;9.18;;;15.90;95.80;;;;;;5032939;28;20086;-74
2022/11/26 11:41:38;;;;;;;26.38;8.98;;;15.90;95.60;;;;;;5028853;28;20064;-74
2022/11/26 11:44:30;;;;;;;35.00;9.27;;;15.90;95.50;;;;;;5033154;28;20037;-73
2022/11/26 11:47:21;;;;;;;28.40;9.95;;;15.80;95.20;;;;;;5032822;28;20099;-74
2022/11/26 11:50:04;;;;;;;27.23;9.70;;;15.70;95.80;;;;;;5032820;28;20367;-74
2022/11/26 11:52:57;;;;;;;27.75;9.18;;;15.50;95.40;;;;;;5033150;28;20038;-74
2022/11/26 11:55:43;;;;;;;28.33;9.65;;;15.20;95.90;;;;;;5032112;28;20021;-75
2022/11/26 11:58:28;;;;;;;29.85;10.38;;;15.10;95.50;;;;;;5033356;28;20570;-75
2022/11/26 12:01:17;;;;;;;27.00;10.00;;;15.20;96.10;;;;;;5033022;28;20136;-74
2022/11/26 12:04:14;;;;;;;28.83;10.23;;;14.90;95.80;;;;;;5033030;28;20348;-75
2022/11/26 12:06:52;;;;;;;29.88;10.43;;;15.00;96.00;;;;;;5032092;28;20136;-75
2022/11/26 12:09:17;;;;;;;30.55;10.50;;;14.70;96.20;;;;;;5032763;28;20336;-75
2022/11/26 12:11:57;;;;;;;31.55;11.90;;;14.90;96.30;;;;;;5031914;28;20463;-74
2022/11/26 12:14:23;;;;;;;28.33;10.90;;;14.90;96.00;;;;;;5031682;28;20026;-74
2022/11/26 12:16:53;;;;;;;33.05;11.40;;;15.00;96.00;;;;;;5031746;28;20032;-75
2022/11/26 12:19:33;;;;;;;29.30;11.40;;;15.00;96.20;;;;;;5033306;28;20325;-73
2022/11/26 12:22:25;;;;;;;30.02;11.38;;;14.90;96.00;;;;;;5033887;28;20055;-76
2022/11/26 12:25:03;;;;;;;31.23;11.55;;;14.90;95.90;;;;;;5032644;28;20073;-75
2022/11/26 12:27:37;;;;;;;;;;;14.80;95.70;;;;;;5033385;28;20044;-75
2022/11/26 12:30:12;;;;;;;24.17;11.15;;;14.70;95.70;;;;;;5032411;28;19909;-74
2022/11/26 12:32:48;;;;;;;27.88;10.63;;;14.70;96.00;;;;;;5032177;28;20034;-75
2022/11/26 12:35:41;;;;;;;29.88;10.65;;;14.50;96.00;;;;;;5031221;28;20033;-74
2022/11/26 12:38:16;;;;;;;27.48;11.75;;;14.50;96.20;;;;;;5032228;28;20128;-74
2022/11/26 12:41:00;;;;;;;29.40;11.20;;;14.40;96.00;;;;;;5030959;28;20033;-75
2022/11/26 12:43:38;;;;;;;35.28;14.15;;;14.30;96.30;;;;;;5032168;28;20398;-77
2022/11/26 12:46:12;;;;;;;47.08;18.52;;;14.30;96.80;;;;;;5032772;28;20021;-75
2022/11/26 12:49:08;;;;;;;28.85;12.45;;;14.40;96.60;;;;;;5030905;28;20030;-73
2022/11/26 12:52:00;;;;;;;31.90;11.90;;;14.20;96.30;;;;;;5031792;28;20033;-73
2022/11/26 12:54:53;;;;;;;33.47;12.73;;;14.20;96.40;;;;;;5030959;28;20576;-73
2022/11/26 12:57:54;;;;;;;28.85;11.65;;;14.10;96.50;;;;;;5030876;28;20037;-74